createdAt,value
2023-04-20T06:20:59.944Z,1012.71
2023-04-20T06:30:59.892Z,1012.86
2023-04-20T06:40:59.951Z,1012.85
2023-04-20T06:50:59.812Z,1012.93
2023-04-20T07:00:59.883Z,1013.01
2023-04-20T07:10:59.882Z,1013.08
2023-04-20T07:20:59.869Z,1013.15
2023-04-20T07:31:00.095Z,1013.13
2023-04-20T07:40:59.937Z,1013.24
2023-04-20T07:50:59.939Z,1013.22
2023-04-20T08:00:59.899Z,1013.19
2023-04-20T08:11:00.031Z,1013.27
2023-04-20T08:20:59.986Z,1013.31
2023-04-20T08:31:00.002Z,1013.45
2023-04-20T08:41:00.066Z,1013.35
2023-04-20T08:51:00.297Z,1013.34
2023-04-20T09:01:00.297Z,1013.22
2023-04-20T09:11:00.129Z,1013.27
2023-04-20T09:21:00.293Z,1013.00
2023-04-20T09:31:00.280Z,1013.21
2023-04-20T09:41:00.222Z,1013.03
2023-04-20T09:51:00.187Z,1013.09
2023-04-20T10:01:00.190Z,1013.17
2023-04-20T10:11:00.178Z,1013.09
2023-04-20T10:21:00.125Z,1013.12
2023-04-20T10:31:00.274Z,1012.96
2023-04-20T10:41:00.288Z,1012.92
2023-04-20T10:51:00.347Z,1013.02
2023-04-20T11:01:00.247Z,1012.90
2023-04-20T11:11:00.383Z,1012.90
2023-04-20T11:21:00.227Z,1012.79
2023-04-20T11:31:00.419Z,1012.70
2023-04-20T11:41:00.078Z,1012.59
2023-04-20T11:51:00.231Z,1012.29
2023-04-20T12:01:00.228Z,1012.25
2023-04-20T12:11:00.207Z,1012.23
2023-04-20T12:21:00.220Z,1012.31
2023-04-20T12:31:01.489Z,1012.01
2023-04-20T12:41:00.326Z,1012.29
2023-04-20T12:51:00.438Z,1012.36
2023-04-20T13:01:00.303Z,1012.25
2023-04-20T13:11:00.353Z,1012.29
2023-04-20T13:21:00.314Z,1012.22
2023-04-20T13:31:00.290Z,1012.34
2023-04-20T13:41:00.348Z,1012.44
2023-04-20T13:51:00.430Z,1012.44
2023-04-20T14:01:00.439Z,1012.33
2023-04-20T14:11:00.424Z,1012.19
2023-04-20T14:21:00.465Z,1012.17
2023-04-20T14:31:00.696Z,1012.27
2023-04-20T14:41:00.588Z,1012.16
2023-04-20T14:51:00.779Z,1012.35
2023-04-20T15:01:00.786Z,1012.25
2023-04-20T15:11:00.595Z,1012.43
2023-04-20T15:21:00.668Z,1012.46
2023-04-20T15:31:00.604Z,1012.32
2023-04-20T15:41:00.842Z,1012.47
2023-04-20T15:51:00.617Z,1012.47
2023-04-20T16:01:00.713Z,1012.21
2023-04-20T16:11:00.596Z,1012.01
2023-04-20T16:21:00.858Z,1011.92
2023-04-20T16:31:01.014Z,1011.72
2023-04-20T16:41:00.810Z,1011.61
2023-04-20T16:51:00.962Z,1011.70
2023-04-20T17:01:00.923Z,1011.57
2023-04-20T17:11:00.834Z,1011.65
2023-04-20T17:21:00.940Z,1011.81
2023-04-20T17:31:00.760Z,1011.76
2023-04-20T17:41:00.753Z,1011.75
2023-04-20T17:51:01.206Z,1011.75
2023-04-20T18:01:01.002Z,1011.95
2023-04-20T18:11:00.888Z,1012.14
2023-04-20T18:21:00.940Z,1012.20
2023-04-20T18:31:01.029Z,1012.32
2023-04-20T18:41:00.994Z,1012.27
2023-04-20T18:51:00.938Z,1012.34
2023-04-20T19:01:01.017Z,1012.23
2023-04-20T19:11:00.898Z,1012.21
2023-04-20T19:21:01.057Z,1012.24
